Time;durP1;ratioP1;P1;durP2;ratioP2;P2;SDS_P1;SDS_P2;PMS_P1;PMS_P2;Temp;Humidity;BMP_temperature;BMP_pressure;BME280_temperature;BME280_humidity;BME280_pressure;Samples;Min_cycle;Max_cycle;Signal;HPM_P1;HPM_P2
2021/03/06 00:01:01;;;;;;;7.18;3.88;;;0.80;91.20;;;;;;5058230;28;20224;-75
2021/03/06 00:03:27;;;;;;;11.77;4.97;;;0.80;92.00;;;;;;5064494;28;20162;-75
2021/03/06 00:05:54;;;;;;;11.20;4.30;;;0.80;91.20;;;;;;5062449;28;20059;-75
2021/03/06 00:08:23;;;;;;;11.90;4.20;;;0.80;90.80;;;;;;5059542;28;20037;-75
2021/03/06 00:10:49;;;;;;;8.90;4.05;;;0.70;90.80;;;;;;5041387;28;20044;-74
2021/03/06 00:13:14;;;;;;;8.38;4.22;;;0.70;91.20;;;;;;5059918;28;20045;-75
2021/03/06 00:15:40;;;;;;;9.00;4.20;;;0.60;90.80;;;;;;5058016;28;20537;-76
2021/03/06 00:18:06;;;;;;;9.35;3.30;;;0.60;91.00;;;;;;5041713;28;20665;-73
2021/03/06 00:20:31;;;;;;;7.57;3.95;;;0.60;90.50;;;;;;5059894;28;20056;-76
2021/03/06 00:22:57;;;;;;;5.93;3.28;;;0.60;90.90;;;;;;5063722;28;20413;-74
2021/03/06 00:25:23;;;;;;;8.55;4.38;;;0.50;91.20;;;;;;5063334;28;20374;-76
2021/03/06 00:27:49;;;;;;;9.10;3.47;;;0.50;91.50;;;;;;5062853;28;20082;-76
2021/03/06 00:30:17;;;;;;;10.07;3.80;;;0.40;91.80;;;;;;5062510;28;20452;-75
2021/03/06 00:32:43;;;;;;;8.20;4.07;;;0.40;92.00;;;;;;5063110;28;20037;-74
2021/03/06 00:35:09;;;;;;;10.73;3.60;;;0.30;92.10;;;;;;5065249;28;20158;-75
2021/03/06 00:37:35;;;;;;;10.45;4.65;;;0.30;92.10;;;;;;5063377;28;20024;-75
2021/03/06 00:40:02;;;;;;;8.10;3.10;;;0.20;92.20;;;;;;5044863;28;20129;-76
2021/03/06 00:42:28;;;;;;;9.05;3.88;;;0.20;93.20;;;;;;5063254;28;20032;-75
2021/03/06 00:44:53;;;;;;;8.13;3.35;;;0.10;92.70;;;;;;5062419;28;20358;-75
2021/03/06 00:47:19;;;;;;;8.93;3.90;;;0.20;92.50;;;;;;5063052;28;20532;-76
2021/03/06 00:49:44;;;;;;;9.27;3.53;;;0.30;91.50;;;;;;5045158;28;20043;-75
2021/03/06 00:52:11;;;;;;;14.90;4.53;;;0.20;91.70;;;;;;5063470;28;20056;-75
2021/03/06 00:54:37;;;;;;;8.95;3.65;;;0.20;91.50;;;;;;5062551;28;20117;-75
2021/03/06 00:57:02;;;;;;;12.93;3.97;;;0.20;91.60;;;;;;5061762;28;20056;-75
2021/03/06 00:59:28;;;;;;;6.65;3.55;;;0.20;91.50;;;;;;5063194;28;20131;-75
2021/03/06 01:01:53;;;;;;;10.65;4.78;;;0.10;91.30;;;;;;5062912;28;20622;-75
2021/03/06 01:04:19;;;;;;;9.73;4.18;;;0.20;91.50;;;;;;5061557;28;20043;-75
2021/03/06 01:06:44;;;;;;;9.60;4.00;;;0.20;91.00;;;;;;5042912;28;20038;-75
2021/03/06 01:09:10;;;;;;;8.35;4.15;;;0.20;91.30;;;;;;5062589;28;20494;-75
2021/03/06 01:11:36;;;;;;;7.65;3.58;;;0.10;91.90;;;;;;5062577;28;20056;-75
2021/03/06 01:14:03;;;;;;;6.90;3.72;;;0.10;91.40;;;;;;5062022;28;20036;-75
2021/03/06 01:16:28;;;;;;;10.90;3.75;;;0.00;91.30;;;;;;5061862;28;20032;-75
2021/03/06 01:18:54;;;;;;;10.55;4.05;;;0.00;91.90;;;;;;5062830;28;20040;-75
2021/03/06 01:21:19;;;;;;;6.65;4.05;;;0.00;91.40;;;;;;5062324;28;20036;-75
2021/03/06 01:23:45;;;;;;;6.85;3.63;;;0.00;91.60;;;;;;5061156;28;20055;-75
2021/03/06 01:26:11;;;;;;;10.52;3.85;;;-0.10;91.40;;;;;;5044712;28;20060;-75
2021/03/06 01:28:36;;;;;;;6.22;3.67;;;-0.10;91.50;;;;;;5060865;28;20064;-75
2021/03/06 01:31:02;;;;;;;7.25;3.70;;;-0.10;91.50;;;;;;5042344;28;20032;-75
2021/03/06 01:33:27;;;;;;;8.75;4.07;;;-0.10;91.50;;;;;;5061139;28;20040;-75
2021/03/06 01:35:53;;;;;;;10.50;4.55;;;-0.20;91.70;;;;;;5061679;28;20754;-76
2021/03/06 01:38:18;;;;;;;8.40;3.75;;;-0.20;92.10;;;;;;5062665;28;20106;-75
2021/03/06 01:40:44;;;;;;;9.38;4.57;;;-0.30;92.40;;;;;;5062221;28;20090;-76
2021/03/06 01:43:11;;;;;;;9.38;4.03;;;-0.30;92.70;;;;;;5061636;28;20086;-75
2021/03/06 01:45:38;;;;;;;8.75;4.35;;;-0.30;93.40;;;;;;5062015;28;20347;-75
2021/03/06 01:48:04;;;;;;;9.63;4.35;;;-0.40;92.90;;;;;;5060015;28;20032;-75
2021/03/06 01:50:35;;;;;;;15.05;4.95;;;-0.40;93.40;;;;;;5062195;28;20178;-75
2021/03/06 01:53:03;;;;;;;8.85;4.65;;;-0.50;93.40;;;;;;5060285;28;20058;-75
2021/03/06 01:55:31;;;;;;;30.80;4.55;;;-0.50;94.70;;;;;;5061554;28;20044;-75
2021/03/06 01:57:57;;;;;;;9.98;4.45;;;-0.50;94.60;;;;;;5061643;28;20066;-75
2021/03/06 02:00:24;;;;;;;8.43;4.32;;;-0.60;95.70;;;;;;5061253;28;20037;-76
2021/03/06 02:02:50;;;;;;;12.88;4.75;;;-0.60;96.40;;;;;;5042135;28;20078;-76
2021/03/06 02:05:16;;;;;;;9.45;4.30;;;-0.60;95.90;;;;;;5062396;28;20435;-76
2021/03/06 02:07:43;;;;;;;9.52;4.40;;;-0.60;95.80;;;;;;5061789;28;20436;-75
2021/03/06 02:10:11;;;;;;;7.60;4.53;;;-0.70;96.10;;;;;;5062502;28;20638;-74
2021/03/06 02:13:05;;;;;;;10.70;4.28;;;-0.80;96.10;;;;;;5061864;28;20044;-74
2021/03/06 02:15:52;;;;;;;9.55;4.22;;;-0.70;96.00;;;;;;5059591;28;20038;-76
2021/03/06 02:18:24;;;;;;;9.45;4.55;;;-0.70;96.00;;;;;;5061579;28;20040;-75
2021/03/06 02:21:02;;;;;;;10.98;4.88;;;-0.60;95.50;;;;;;5061002;28;20104;-75
2021/03/06 02:23:55;;;;;;;8.05;4.25;;;-0.80;95.30;;;;;;5061038;28;20524;-76
2021/03/06 02:26:42;;;;;;;8.77;4.40;;;-0.80;95.50;;;;;;5061000;28;20047;-74
2021/03/06 02:29:37;;;;;;;8.98;4.22;;;-0.80;95.50;;;;;;5062044;28;20055;-75
2021/03/06 02:32:27;;;;;;;9.70;4.63;;;-0.80;95.50;;;;;;5042571;28;20051;-75
2021/03/06 02:35:09;;;;;;;8.57;4.30;;;-0.70;95.30;;;;;;5058979;28;20039;-75
2021/03/06 02:37:41;;;;;;;9.25;4.47;;;-0.70;95.40;;;;;;5066368;28;20036;-75
2021/03/06 02:40:09;;;;;;;8.80;4.32;;;-0.70;95.10;;;;;;5067317;28;20600;-75
2021/03/06 02:42:36;;;;;;;8.35;4.40;;;-0.60;95.10;;;;;;5061383;28;20462;-76
2021/03/06 02:45:03;;;;;;;10.23;4.57;;;-0.60;94.90;;;;;;5040642;28;20028;-76
2021/03/06 02:47:29;;;;;;;14.57;4.93;;;-0.60;94.80;;;;;;5068150;28;20043;-75
2021/03/06 02:49:57;;;;;;;6.63;4.28;;;-0.60;95.10;;;;;;5064017;28;20037;-76
2021/03/06 02:52:23;;;;;;;11.43;5.32;;;-0.70;94.70;;;;;;5059868;28;20086;-75
2021/03/06 02:54:49;;;;;;;20.65;5.35;;;-0.60;94.80;;;;;;5060560;28;20036;-76
2021/03/06 02:57:42;;;;;;;7.95;4.43;;;-0.70;94.60;;;;;;5060091;28;20520;-75
2021/03/06 03:00:40;;;;;;;9.60;4.35;;;-0.70;94.60;;;;;;5060135;28;20151;-75
2021/03/06 03:03:25;;;;;;;8.68;4.30;;;-0.80;94.60;;;;;;5037647;28;20054;-75
2021/03/06 03:06:18;;;;;;;9.65;4.18;;;-0.80;94.60;;;;;;5058302;28;20029;-76
2021/03/06 03:09:12;;;;;;;9.23;4.55;;;-0.70;94.60;;;;;;5058467;28;20047;-75
2021/03/06 03:11:56;;;;;;;8.88;4.43;;;-0.80;94.80;;;;;;5058927;28;20040;-75
2021/03/06 03:14:33;;;;;;;9.48;4.40;;;-0.80;94.70;;;;;;5061720;28;20060;-75
2021/03/06 03:17:05;;;;;;;10.15;4.65;;;-0.90;94.30;;;;;;5058280;28;20048;-75
2021/03/06 03:20:00;;;;;;;9.95;4.30;;;-0.80;94.00;;;;;;5058801;28;20101;-73
2021/03/06 03:22:31;;;;;;;12.57;4.65;;;-0.80;93.90;;;;;;5039988;28;20032;-73
2021/03/06 03:25:00;;;;;;;8.50;4.13;;;-0.80;94.20;;;;;;5058179;28;20032;-73
2021/03/06 03:27:28;;;;;;;9.40;4.43;;;-0.80;94.10;;;;;;5058722;28;20036;-75
2021/03/06 03:29:56;;;;;;;8.40;3.92;;;-0.90;93.90;;;;;;5058310;28;20036;-75
2021/03/06 03:32:24;;;;;;;6.65;3.65;;;-1.00;94.10;;;;;;5059389;28;20116;-75
2021/03/06 03:34:50;;;;;;;10.52;4.22;;;-1.00;94.10;;;;;;5058012;28;20163;-75
2021/03/06 03:37:16;;;;;;;9.00;4.35;;;-1.00;94.70;;;;;;5059714;28;20400;-75
2021/03/06 03:39:43;;;;;;;11.13;4.15;;;-1.00;94.20;;;;;;5058069;28;20036;-74
2021/03/06 03:42:09;;;;;;;8.20;4.18;;;-1.10;94.10;;;;;;5059103;28;20112;-75
2021/03/06 03:44:35;;;;;;;6.30;3.95;;;-1.10;94.10;;;;;;5059857;28;20052;-75
2021/03/06 03:47:03;;;;;;;9.35;4.50;;;-1.20;94.10;;;;;;5058174;28;20033;-74
2021/03/06 03:49:29;;;;;;;10.27;4.63;;;-1.20;94.30;;;;;;5058999;28;20044;-75
2021/03/06 03:51:55;;;;;;;8.80;5.22;;;-1.20;94.40;;;;;;5055836;28;20428;-76
2021/03/06 03:54:21;;;;;;;8.45;3.90;;;-1.30;94.80;;;;;;5058402;28;20606;-75
2021/03/06 03:56:47;;;;;;;12.02;4.60;;;-1.20;94.70;;;;;;5059081;28;20043;-76
2021/03/06 03:59:12;;;;;;;9.52;4.55;;;-1.30;94.30;;;;;;5061004;28;20099;-76
2021/03/06 04:01:41;;;;;;;8.10;4.40;;;-1.30;94.10;;;;;;5059196;28;20036;-73
2021/03/06 04:04:07;;;;;;;7.07;3.97;;;-1.30;94.10;;;;;;5059631;28;20047;-76
2021/03/06 04:06:34;;;;;;;14.15;4.28;;;-1.20;94.70;;;;;;5059503;28;20037;-74
2021/03/06 04:09:00;;;;;;;7.55;3.90;;;-1.40;94.00;;;;;;5057967;28;20219;-74
2021/03/06 04:11:26;;;;;;;8.05;4.38;;;-1.30;94.20;;;;;;5059055;28;20199;-72
2021/03/06 04:13:51;;;;;;;6.55;4.05;;;-1.40;94.40;;;;;;5080270;22;20040;-77
2021/03/06 04:16:17;;;;;;;12.23;3.72;;;-1.40;94.60;;;;;;5053427;28;20033;-78
2021/03/06 04:18:43;;;;;;;9.57;4.15;;;-1.30;94.00;;;;;;5022687;28;20160;-76
2021/03/06 04:21:08;;;;;;;6.97;4.18;;;-1.30;93.70;;;;;;5040831;28;20087;-77
2021/03/06 04:23:34;;;;;;;7.88;4.32;;;-1.20;93.50;;;;;;5041546;28;20037;-76
2021/03/06 04:25:59;;;;;;;6.60;3.63;;;-1.20;93.70;;;;;;5028258;28;20037;-77
2021/03/06 04:28:25;;;;;;;13.38;4.35;;;-1.40;93.70;;;;;;5055911;28;20535;-77
2021/03/06 04:30:50;;;;;;;8.25;3.78;;;-1.40;93.90;;;;;;5057732;28;20037;-77
2021/03/06 04:33:16;;;;;;;13.02;4.63;;;-1.40;93.70;;;;;;5046787;28;20060;-77
2021/03/06 04:35:41;;;;;;;9.98;5.03;;;-1.40;93.90;;;;;;5034434;28;20128;-77
2021/03/06 04:38:07;;;;;;;6.82;4.35;;;-1.50;93.60;;;;;;5056510;28;20132;-77
2021/03/06 04:40:32;;;;;;;8.45;4.13;;;-1.50;93.80;;;;;;5041844;28;20068;-77
2021/03/06 04:42:58;;;;;;;10.88;4.63;;;-1.50;93.90;;;;;;5032594;28;20541;-77
2021/03/06 04:45:24;;;;;;;7.90;4.28;;;-1.50;93.90;;;;;;5054320;28;20043;-77
2021/03/06 04:47:49;;;;;;;7.78;4.22;;;-1.50;93.80;;;;;;5058711;28;20216;-77
2021/03/06 04:50:15;;;;;;;10.98;4.28;;;-1.60;93.80;;;;;;5054423;28;20103;-77
2021/03/06 04:52:41;;;;;;;9.45;5.03;;;-1.60;93.80;;;;;;5058121;28;20550;-77
2021/03/06 04:55:07;;;;;;;9.57;4.25;;;-1.60;94.00;;;;;;5058299;28;20036;-77
2021/03/06 04:57:34;;;;;;;8.95;4.57;;;-1.70;93.80;;;;;;5051191;28;20083;-77
2021/03/06 05:00:00;;;;;;;9.23;4.95;;;-1.60;94.00;;;;;;5058346;28;20039;-77
2021/03/06 05:02:26;;;;;;;10.63;4.47;;;-1.70;94.20;;;;;;5043832;28;20052;-77
2021/03/06 05:04:52;;;;;;;8.00;4.53;;;-1.60;94.40;;;;;;5049667;28;20048;-77
2021/03/06 05:07:17;;;;;;;7.65;4.07;;;-1.60;94.40;;;;;;5041598;28;20036;-77
2021/03/06 05:09:43;;;;;;;8.38;4.30;;;-1.50;93.70;;;;;;5054411;28;20028;-77
2021/03/06 05:12:08;;;;;;;6.03;3.90;;;-1.60;93.60;;;;;;5056492;28;20048;-77
2021/03/06 05:14:34;;;;;;;7.50;4.13;;;-1.60;93.80;;;;;;5055034;28;20275;-77
2021/03/06 05:17:01;;;;;;;8.98;4.53;;;-1.60;94.00;;;;;;5044855;28;20028;-77
2021/03/06 05:19:27;;;;;;;6.45;4.13;;;-1.60;94.50;;;;;;5056703;28;20032;-77
2021/03/06 05:21:53;;;;;;;10.93;4.88;;;-1.60;93.90;;;;;;5053100;28;20040;-77
2021/03/06 05:24:18;;;;;;;7.40;4.22;;;-1.60;94.00;;;;;;5039796;28;20132;-77
2021/03/06 05:26:44;;;;;;;12.50;4.50;;;-1.60;93.90;;;;;;5051812;28;20112;-77
2021/03/06 05:29:10;;;;;;;8.75;4.60;;;-1.60;93.70;;;;;;5045327;28;20040;-77
2021/03/06 05:31:35;;;;;;;10.65;4.32;;;-1.60;93.50;;;;;;5054280;28;20055;-77
2021/03/06 05:34:01;;;;;;;9.35;4.38;;;-1.60;93.70;;;;;;5045231;28;20068;-77
2021/03/06 05:36:26;;;;;;;7.93;4.32;;;-1.60;93.70;;;;;;5055356;28;20091;-77
2021/03/06 05:38:52;;;;;;;7.78;4.07;;;-1.60;93.90;;;;;;5053817;28;20573;-77
2021/03/06 05:41:21;;;;;;;12.20;4.40;;;-1.60;93.90;;;;;;5044983;28;20040;-78
2021/03/06 05:43:46;;;;;;;13.05;4.32;;;-1.60;93.90;;;;;;5053556;28;20045;-78
2021/03/06 05:46:14;;;;;;;8.40;4.28;;;-1.70;93.70;;;;;;5041495;28;20120;-77
2021/03/06 05:48:40;;;;;;;7.13;4.53;;;-1.80;93.70;;;;;;5051259;28;20037;-77
2021/03/06 05:51:07;;;;;;;10.93;4.32;;;-1.80;93.80;;;;;;5051071;28;20036;-78
2021/03/06 05:53:33;;;;;;;7.90;4.30;;;-1.70;94.10;;;;;;5050434;28;20048;-78
2021/03/06 05:56:02;;;;;;;11.73;4.43;;;-1.80;94.10;;;;;;5043040;28;20417;-77
2021/03/06 05:58:30;;;;;;;12.13;4.45;;;-1.80;93.90;;;;;;5053891;28;20039;-77
2021/03/06 06:00:56;;;;;;;8.82;4.75;;;-1.80;94.00;;;;;;5043270;28;20423;-77
2021/03/06 06:03:22;;;;;;;7.35;4.05;;;-1.80;93.90;;;;;;5048350;28;20120;-77
2021/03/06 06:05:48;;;;;;;8.63;4.75;;;-1.80;93.80;;;;;;5046626;28;20045;-77
2021/03/06 06:08:16;;;;;;;9.10;4.63;;;-1.70;94.00;;;;;;5049436;28;20044;-77
2021/03/06 06:10:42;;;;;;;8.13;4.80;;;-1.70;94.20;;;;;;5041762;28;20045;-77
2021/03/06 06:13:07;;;;;;;7.35;3.83;;;-1.80;94.20;;;;;;5044691;28;20048;-77
2021/03/06 06:15:33;;;;;;;9.05;4.82;;;-1.80;94.30;;;;;;5043833;28;20047;-77
2021/03/06 06:17:58;;;;;;;7.32;4.57;;;-1.70;94.00;;;;;;5051719;28;20037;-77
2021/03/06 06:20:24;;;;;;;6.82;3.83;;;-1.70;93.60;;;;;;5051196;28;20520;-78
2021/03/06 06:23:29;;;;;;;10.45;4.32;;;-1.60;93.30;;;;;;5060431;28;20123;-77
2021/03/06 06:25:54;;;;;;;9.77;5.27;;;-1.60;93.20;;;;;;4981539;28;20549;-77
2021/03/06 06:28:20;;;;;;;9.43;4.60;;;-1.60;93.40;;;;;;5000352;28;20070;-77
2021/03/06 06:31:11;;;;;;;7.32;4.60;;;-1.60;93.40;;;;;;5027408;28;20036;-77
2021/03/06 06:33:37;;;;;;;9.88;4.65;;;-1.50;93.20;;;;;;5043905;28;20033;-77
2021/03/06 06:36:02;;;;;;;13.88;5.13;;;-1.50;93.40;;;;;;5041499;28;20044;-78
2021/03/06 06:38:43;;;;;;;8.00;4.50;;;-1.40;92.90;;;;;;5055023;28;20036;-77
2021/03/06 06:41:09;;;;;;;11.57;4.30;;;-1.30;92.40;;;;;;5061728;28;20405;-77
2021/03/06 06:43:34;;;;;;;9.52;4.60;;;-1.20;92.30;;;;;;5060257;28;20036;-78
2021/03/06 06:46:00;;;;;;;9.73;4.43;;;-1.10;92.10;;;;;;5060946;28;20048;-78
2021/03/06 06:48:26;;;;;;;8.90;4.40;;;-1.10;92.10;;;;;;5061946;28;20604;-78
2021/03/06 06:51:08;;;;;;;11.25;4.88;;;-1.00;91.10;;;;;;5063042;28;20044;-78
2021/03/06 06:53:34;;;;;;;11.75;5.30;;;-0.90;91.40;;;;;;5076395;28;20067;-77
2021/03/06 06:55:59;;;;;;;15.75;4.78;;;-0.80;90.40;;;;;;5058632;28;20169;-78
2021/03/06 06:58:34;;;;;;;9.20;4.50;;;-0.70;90.00;;;;;;5059131;28;20409;-76
2021/03/06 07:01:00;;;;;;;9.05;3.90;;;-0.30;87.30;;;;;;5058495;28;20119;-77
2021/03/06 07:03:26;;;;;;;10.70;4.18;;;-0.10;84.40;;;;;;5058418;28;20043;-77
2021/03/06 07:05:52;;;;;;;16.67;4.10;;;0.20;81.20;;;;;;5059391;28;20094;-77
2021/03/06 07:08:25;;;;;;;8.82;4.18;;;0.50;78.80;;;;;;5062004;28;20033;-77
2021/03/06 07:10:52;;;;;;;8.07;3.80;;;0.60;77.60;;;;;;5063414;28;20472;-77
2021/03/06 07:13:18;;;;;;;8.65;3.78;;;0.80;76.50;;;;;;5061175;28;20556;-77
2021/03/06 07:15:56;;;;;;;8.02;3.95;;;1.00;75.50;;;;;;5061634;28;20413;-77
2021/03/06 07:18:22;;;;;;;8.20;4.05;;;0.80;74.50;;;;;;5062568;28;20325;-77
2021/03/06 07:20:49;;;;;;;6.25;3.78;;;0.80;75.30;;;;;;5064308;28;20074;-78
2021/03/06 07:23:34;;;;;;;10.23;4.35;;;1.00;73.30;;;;;;5063565;28;20067;-77
2021/03/06 07:26:00;;;;;;;10.90;4.03;;;1.10;73.30;;;;;;5061879;28;20048;-78
2021/03/06 07:28:26;;;;;;;6.70;4.43;;;1.10;73.00;;;;;;5064932;28;20033;-78
2021/03/06 07:30:54;;;;;;;9.07;4.68;;;1.50;72.70;;;;;;5064025;28;20056;-77
2021/03/06 07:33:21;;;;;;;16.00;4.55;;;2.40;69.00;;;;;;5062822;28;20378;-77
2021/03/06 07:35:48;;;;;;;9.50;5.13;;;2.70;65.10;;;;;;5062638;28;20057;-77
2021/03/06 07:38:18;;;;;;;9.75;3.92;;;3.30;64.90;;;;;;5063354;28;20049;-77
2021/03/06 07:40:56;;;;;;;5.28;3.22;;;3.20;59.10;;;;;;5064085;28;20083;-78
2021/03/06 07:43:33;;;;;;;6.82;4.07;;;3.10;59.30;;;;;;5062591;28;20041;-77
2021/03/06 07:46:00;;;;;;;7.43;3.88;;;3.30;57.70;;;;;;5061710;28;20063;-77
2021/03/06 07:48:28;;;;;;;11.68;4.15;;;3.20;58.10;;;;;;5062230;28;20036;-76
2021/03/06 07:50:54;;;;;;;8.18;4.07;;;2.90;58.60;;;;;;5073067;28;20045;-77
2021/03/06 07:53:21;;;;;;;16.00;4.22;;;2.90;59.30;;;;;;5050248;28;20090;-76
2021/03/06 07:55:48;;;;;;;12.18;3.70;;;2.80;60.00;;;;;;5058704;28;20049;-76
2021/03/06 07:58:21;;;;;;;5.63;3.88;;;2.90;59.20;;;;;;5060391;28;20505;-77
2021/03/06 08:00:50;;;;;;;8.80;4.72;;;3.00;58.90;;;;;;5061330;28;20033;-75
2021/03/06 08:03:26;;;;;;;11.85;3.92;;;3.20;59.20;;;;;;5061047;28;20059;-76
2021/03/06 08:05:58;;;;;;;6.55;3.80;;;3.30;58.30;;;;;;5061975;28;20403;-76
2021/03/06 08:08:32;;;;;;;8.57;3.63;;;3.40;57.70;;;;;;5062058;28;20093;-76
2021/03/06 08:11:22;;;;;;;6.60;3.58;;;3.60;57.40;;;;;;5061247;28;20624;-76
2021/03/06 08:13:53;;;;;;;7.93;4.15;;;4.00;55.30;;;;;;5051680;28;20142;-77
2021/03/06 08:16:21;;;;;;;12.82;4.25;;;4.20;52.50;;;;;;5060265;28;20037;-76
2021/03/06 08:18:55;;;;;;;8.00;3.92;;;4.60;51.70;;;;;;5059225;28;20045;-77
2021/03/06 08:21:41;;;;;;;7.40;3.63;;;4.70;50.70;;;;;;5059981;28;20450;-78
2021/03/06 08:24:18;;;;;;;5.53;3.58;;;4.40;51.40;;;;;;5060219;28;20089;-77
2021/03/06 08:27:02;;;;;;;7.10;3.70;;;4.30;51.30;;;;;;5057050;28;20064;-77
2021/03/06 08:29:28;;;;;;;7.93;4.00;;;4.60;51.90;;;;;;5074458;28;20535;-77
2021/03/06 08:32:03;;;;;;;9.85;4.40;;;5.20;51.00;;;;;;5059040;28;20040;-78
2021/03/06 08:34:37;;;;;;;7.82;3.97;;;5.50;49.30;;;;;;5047682;28;20036;-78
2021/03/06 08:37:21;;;;;;;7.47;3.83;;;5.70;45.60;;;;;;5062420;28;20048;-78
2021/03/06 08:39:49;;;;;;;8.07;4.03;;;5.80;45.40;;;;;;5063986;28;20048;-78
2021/03/06 08:42:17;;;;;;;8.20;3.95;;;6.40;43.00;;;;;;5062400;28;20032;-77
2021/03/06 08:44:43;;;;;;;6.75;3.38;;;6.80;41.00;;;;;;5077469;28;20109;-77
2021/03/06 08:47:09;;;;;;;7.35;3.85;;;6.40;39.80;;;;;;5063797;28;20038;-78
2021/03/06 08:49:37;;;;;;;7.63;3.83;;;6.50;39.90;;;;;;5061936;28;20443;-78
2021/03/06 08:52:04;;;;;;;6.70;3.88;;;6.70;41.60;;;;;;5064427;28;20037;-78
2021/03/06 08:54:40;;;;;;;13.20;4.65;;;6.60;40.00;;;;;;5065920;28;20082;-78
2021/03/06 08:57:21;;;;;;;12.18;4.25;;;6.80;39.60;;;;;;5064833;28;20037;-78
2021/03/06 08:59:46;;;;;;;9.45;4.30;;;6.90;39.00;;;;;;5162274;22;20083;-78
2021/03/06 09:02:29;;;;;;;8.02;4.10;;;6.90;38.80;;;;;;5038083;28;20065;-78
2021/03/06 09:05:09;;;;;;;5.93;3.55;;;7.50;38.40;;;;;;5042576;28;20067;-77
2021/03/06 09:07:38;;;;;;;8.10;3.95;;;8.50;34.20;;;;;;5032902;28;20855;-77
2021/03/06 09:10:25;;;;;;;7.70;3.70;;;8.90;31.10;;;;;;5035304;28;20064;-79
2021/03/06 09:15:25;;;;;;;10.57;4.13;;;9.90;26.90;;;;;;5011009;28;20049;-75
2021/03/06 09:17:51;;;;;;;9.63;3.90;;;10.10;24.80;;;;;;5011301;28;20048;-75
2021/03/06 09:20:17;;;;;;;9.07;3.53;;;10.60;24.50;;;;;;5011384;28;20038;-75
2021/03/06 09:22:48;;;;;;;7.70;3.25;;;10.50;22.70;;;;;;5013206;28;20068;-75
2021/03/06 09:25:14;;;;;;;10.43;4.28;;;11.60;22.90;;;;;;5011771;28;20033;-74
2021/03/06 09:27:46;;;;;;;5.85;3.33;;;11.00;21.40;;;;;;5012597;28;20446;-73
2021/03/06 09:30:26;;;;;;;6.63;3.47;;;11.40;22.20;;;;;;5013823;28;20133;-74
2021/03/06 09:32:52;;;;;;;11.10;4.43;;;11.00;21.80;;;;;;5014148;28;20038;-74
2021/03/06 09:35:19;;;;;;;6.35;3.47;;;11.20;21.40;;;;;;5013246;28;20040;-75
2021/03/06 09:37:45;;;;;;;8.25;3.58;;;11.40;19.40;;;;;;5014004;28;20065;-75
2021/03/06 09:40:19;;;;;;;6.10;3.40;;;12.30;19.90;;;;;;5013596;28;20398;-74
2021/03/06 09:42:48;;;;;;;6.25;3.20;;;12.00;19.10;;;;;;5012331;28;20521;-75
2021/03/06 09:45:14;;;;;;;8.68;3.65;;;12.40;19.30;;;;;;5013844;28;20483;-74
2021/03/06 09:47:40;;;;;;;8.80;3.50;;;12.90;18.80;;;;;;5013117;28;20030;-73
2021/03/06 09:50:06;;;;;;;5.93;3.35;;;12.30;18.00;;;;;;5014265;28;20034;-76
2021/03/06 09:52:33;;;;;;;6.50;3.30;;;13.30;17.90;;;;;;5021810;28;20552;-75
2021/03/06 09:55:00;;;;;;;8.35;3.83;;;13.30;16.80;;;;;;5012387;28;20078;-75
2021/03/06 09:57:26;;;;;;;5.05;3.30;;;12.40;17.50;;;;;;5014500;28;20638;-75
2021/03/06 09:59:51;;;;;;;9.50;3.13;;;13.10;17.90;;;;;;5013220;28;20530;-74
2021/03/06 10:02:22;;;;;;;11.43;4.13;;;12.90;17.20;;;;;;5011737;28;20045;-75
2021/03/06 10:04:49;;;;;;;8.80;3.70;;;13.20;16.70;;;;;;5010911;28;20049;-74
2021/03/06 10:07:15;;;;;;;6.80;3.45;;;13.00;16.80;;;;;;5010430;28;20042;-75
2021/03/06 10:09:41;;;;;;;9.02;3.40;;;12.70;17.80;;;;;;5008942;28;20034;-75
2021/03/06 10:12:09;;;;;;;5.75;3.42;;;12.50;17.00;;;;;;5008861;28;20129;-74
2021/03/06 10:14:36;;;;;;;6.50;3.80;;;13.80;17.10;;;;;;5011416;28;20475;-74
2021/03/06 10:17:05;;;;;;;5.53;3.38;;;14.10;16.20;;;;;;5009653;28;20541;-74
2021/03/06 10:19:33;;;;;;;9.85;3.90;;;13.90;15.60;;;;;;5007168;28;20115;-75
2021/03/06 10:22:00;;;;;;;9.10;4.13;;;14.50;15.30;;;;;;5005469;28;20034;-75
2021/03/06 10:24:27;;;;;;;7.88;3.90;;;14.80;14.80;;;;;;5008756;28;20057;-74
2021/03/06 10:27:03;;;;;;;6.63;3.65;;;14.40;14.70;;;;;;5005614;28;20120;-75
2021/03/06 10:29:30;;;;;;;6.80;3.65;;;14.50;14.90;;;;;;5010809;28;20491;-75
2021/03/06 10:32:00;;;;;;;6.25;3.22;;;14.20;14.80;;;;;;5009591;28;20045;-74
2021/03/06 10:34:32;;;;;;;6.72;3.50;;;14.00;13.90;;;;;;5012632;28;20050;-75
2021/03/06 10:37:14;;;;;;;7.22;3.55;;;13.70;14.10;;;;;;5009205;28;20052;-74
2021/03/06 10:39:59;;;;;;;5.93;3.67;;;13.30;14.60;;;;;;5008565;28;20526;-75
2021/03/06 10:42:47;;;;;;;5.38;3.00;;;13.50;14.80;;;;;;5019870;28;20041;-76
2021/03/06 10:45:29;;;;;;;8.48;3.45;;;13.40;14.00;;;;;;5018958;28;20040;-76
2021/03/06 10:47:57;;;;;;;7.90;2.85;;;14.10;14.80;;;;;;5013325;28;20042;-74
2021/03/06 10:50:25;;;;;;;7.95;3.15;;;14.10;14.00;;;;;;5014862;28;20041;-75
2021/03/06 10:53:12;;;;;;;8.05;3.50;;;14.10;14.30;;;;;;5028702;28;20029;-75
2021/03/06 10:55:38;;;;;;;9.40;3.20;;;14.10;14.00;;;;;;5008664;28;20045;-76
2021/03/06 10:58:04;;;;;;;8.63;4.32;;;13.80;13.30;;;;;;5007131;28;20038;-75
2021/03/06 11:00:30;;;;;;;5.80;3.20;;;13.80;13.70;;;;;;5017532;28;20876;-76
2021/03/06 11:03:01;;;;;;;9.40;3.65;;;14.30;13.80;;;;;;5004890;28;20155;-75
2021/03/06 11:05:28;;;;;;;7.72;3.15;;;13.90;13.80;;;;;;5007757;28;20030;-75
2021/03/06 11:07:54;;;;;;;5.32;2.90;;;14.40;13.50;;;;;;5005999;28;20475;-75
2021/03/06 11:10:22;;;;;;;6.82;3.60;;;13.90;12.20;;;;;;5007598;28;20794;-75
2021/03/06 11:12:57;;;;;;;7.47;3.67;;;13.50;13.10;;;;;;5006585;28;20091;-75
2021/03/06 11:15:28;;;;;;;5.47;3.08;;;13.50;13.50;;;;;;5004664;28;20038;-75
2021/03/06 11:17:56;;;;;;;6.07;3.55;;;13.20;14.40;;;;;;5003559;28;20506;-75
2021/03/06 11:20:27;;;;;;;7.68;3.63;;;13.50;13.90;;;;;;5010512;28;20033;-75
2021/03/06 11:22:53;;;;;;;5.20;3.10;;;13.40;13.40;;;;;;5007906;28;20056;-75
2021/03/06 11:25:20;;;;;;;5.45;3.45;;;12.80;13.60;;;;;;5009076;28;20033;-76
2021/03/06 11:27:54;;;;;;;6.15;3.58;;;12.10;14.90;;;;;;5008091;28;21013;-76
2021/03/06 11:30:25;;;;;;;11.95;3.47;;;12.10;14.80;;;;;;5010078;28;20041;-77
2021/03/06 11:32:51;;;;;;;5.43;3.40;;;11.40;15.20;;;;;;4991454;28;20101;-76
2021/03/06 11:35:19;;;;;;;8.98;3.75;;;10.70;16.30;;;;;;5017849;28;20042;-75
2021/03/06 11:37:45;;;;;;;5.95;3.15;;;10.30;15.50;;;;;;5006230;28;20522;-74
2021/03/06 11:40:12;;;;;;;7.50;3.60;;;10.10;17.20;;;;;;5007760;28;20049;-74
2021/03/06 11:42:39;;;;;;;5.68;3.22;;;9.30;18.70;;;;;;4985956;28;20069;-75
2021/03/06 11:45:07;;;;;;;4.78;2.95;;;8.80;19.70;;;;;;5006133;28;20030;-74
2021/03/06 11:47:32;;;;;;;8.70;3.42;;;8.80;19.10;;;;;;5006188;28;20041;-76
2021/03/06 11:49:58;;;;;;;9.05;3.50;;;8.90;19.60;;;;;;4999892;28;20779;-73
2021/03/06 11:52:24;;;;;;;6.20;3.38;;;9.10;19.70;;;;;;5013290;28;20033;-75
2021/03/06 11:54:50;;;;;;;8.38;3.40;;;8.90;19.80;;;;;;4969979;28;20133;-75
2021/03/06 11:57:15;;;;;;;7.93;4.00;;;8.90;19.10;;;;;;4981039;28;20088;-75
2021/03/06 11:59:41;;;;;;;7.68;4.07;;;9.00;19.80;;;;;;5012726;28;20046;-75
2021/03/06 12:02:07;;;;;;;7.57;3.58;;;8.70;19.20;;;;;;5007688;28;20034;-75
2021/03/06 12:04:32;;;;;;;5.43;3.03;;;8.60;19.40;;;;;;5007512;28;20041;-76
2021/03/06 12:06:58;;;;;;;6.63;3.05;;;8.60;18.90;;;;;;5001107;28;20044;-76
2021/03/06 12:09:23;;;;;;;5.75;3.00;;;8.40;18.60;;;;;;4984157;28;20235;-75
2021/03/06 12:11:49;;;;;;;5.00;2.83;;;8.40;18.60;;;;;;5003476;28;20050;-75
2021/03/06 12:14:15;;;;;;;5.28;3.15;;;8.60;19.00;;;;;;5004975;28;20050;-75
2021/03/06 12:16:40;;;;;;;7.15;3.10;;;8.50;18.30;;;;;;5009244;28;20057;-76
2021/03/06 12:19:06;;;;;;;5.93;2.95;;;8.40;17.80;;;;;;5011203;28;20041;-76
2021/03/06 12:21:31;;;;;;;6.55;3.10;;;8.30;18.40;;;;;;5010917;28;20049;-75
2021/03/06 12:23:57;;;;;;;8.25;2.83;;;8.40;19.60;;;;;;5012920;28;20120;-76
2021/03/06 12:26:23;;;;;;;4.75;2.50;;;8.40;18.70;;;;;;5006445;28;20478;-75
2021/03/06 12:28:49;;;;;;;5.53;2.47;;;8.30;18.00;;;;;;5008244;28;20056;-74
2021/03/06 12:31:14;;;;;;;8.50;2.35;;;8.30;18.90;;;;;;4990345;28;20692;-75
2021/03/06 12:33:40;;;;;;;7.65;2.72;;;8.30;19.10;;;;;;5005007;28;20042;-74
2021/03/06 12:36:07;;;;;;;3.83;2.50;;;8.60;19.40;;;;;;4982302;28;20068;-75
2021/03/06 12:38:32;;;;;;;5.95;2.83;;;8.70;18.80;;;;;;5007575;28;20041;-75
2021/03/06 12:40:58;;;;;;;4.53;2.70;;;8.50;18.20;;;;;;5009946;28;20557;-75
2021/03/06 12:43:24;;;;;;;4.68;2.63;;;8.60;18.20;;;;;;5013007;28;20033;-75
2021/03/06 12:45:50;;;;;;;6.47;2.75;;;8.50;17.70;;;;;;5009744;28;20041;-75
2021/03/06 12:48:15;;;;;;;5.00;2.70;;;8.50;17.90;;;;;;5008882;28;20030;-74
2021/03/06 12:50:41;;;;;;;6.47;2.70;;;8.40;17.30;;;;;;5009390;28;20034;-74
2021/03/06 12:53:07;;;;;;;5.32;2.30;;;8.60;17.40;;;;;;5010318;28;20211;-75
2021/03/06 12:55:32;;;;;;;8.05;2.35;;;8.50;17.50;;;;;;5011616;28;20040;-74
2021/03/06 12:57:58;;;;;;;7.57;2.53;;;8.30;17.10;;;;;;5009412;28;20037;-74
2021/03/06 13:00:23;;;;;;;5.72;2.70;;;8.30;18.40;;;;;;5010994;28;20566;-76